Home > Products > Valid Products > TAF

000
FTUS44 KBRO 240500
TAFMFE
TAF
KMFE 240526Z 2406/2506 14016KT P6SM SCT015
     FM240800 15016KT P6SM OVC015
      TEMPO 2409/2413 OVC009
     FM241300 15017KT P6SM OVC020
     FM241500 18015G22KT P6SM SCT035
     FM242000 12011KT P6SM SKC=



000
FTUS44 KBRO 240500
TAFHRL
TAF
KHRL 240526Z 2406/2506 16016KT P6SM BKN015
     FM241700 18015G25KT P6SM SCT035
     FM242200 14014G20KT P6SM FEW040=



000
FTUS44 KBRO 240500
TAFBRO
TAF
KBRO 240526Z 2406/2506 15015KT P6SM OVC015
     FM241500 17018G26KT P6SM SCT035
     FM242200 14014G20KT P6SM FEW040=



000
FTUS44 KBRO 232300 RRA
TAFBRO
TAF
KBRO 232348Z 2400/2424 14017KT P6SM SCT250
     FM240400 15015KT P6SM OVC015
     FM241700 17018G25KT P6SM SCT035=



000
FTUS44 KBRO 232300 RRA
TAFHRL
TAF
KHRL 232348Z 2400/2424 15014G20KT P6SM SCT250
     FM240400 16016KT P6SM OVC015
     FM241700 18015G25KT P6SM SCT035=



000
FTUS44 KBRO 232300 RRA
TAFMFE
TAF
KMFE 232348Z 2400/2424 16017G22KT P6SM SCT250
     FM240400 14016KT P6SM OVC019
     FM240900 15016KT P6SM OVC010
     FM241300 15017KT P6SM OVC020
     FM241700 18015G25KT P6SM SCT035=



000
FTUS44 KBRO 231900 AAA
TAFBRO
TAF AMD
KBRO 231900Z 2319/2418 13018G23KT P6SM SKC
     FM240100 14017KT P6SM SCT030
     FM240400 15015KT P6SM OVC019=



000
FTUS44 KBRO 231800 AAA
TAFMFE
TAF AMD
KMFE 231844Z 2319/2418 14013G20KT P6SM OVC035
     FM240200 13018G24KT P6SM BKN019
     FM240400 14016G22KT P6SM OVC019
     FM240900 15016KT P6SM OVC010=



000
FTUS44 KBRO 231700
TAFMFE
TAF
KMFE 231720Z 2318/2418 14011KT P6SM BKN022 OVC026
     FM240200 13018G24KT P6SM BKN019
     FM240400 14016G22KT P6SM OVC019
     FM240900 15016KT P6SM OVC010=



000
FTUS44 KBRO 231700
TAFHRL
TAF
KHRL 231720Z 2318/2418 16015G19KT P6SM FEW035
     FM240100 14014G21KT P6SM SCT030
     FM240400 16016KT P6SM OVC019=



000
FTUS44 KBRO 231700
TAFBRO
TAF
KBRO 231720Z 2318/2418 16015KT P6SM FEW029
     FM240100 14017KT P6SM SCT030
     FM240400 15015KT P6SM OVC019=



000
FTUS44 KBRO 231700 AAD
TAFMFE
TAF AMD
KMFE 231713Z 2317/2412 14011KT P6SM BKN022 OVC026
     FM240200 13018G24KT P6SM BKN019
     FM240400 14016G22KT P6SM OVC019
     FM240900 15016KT P6SM OVC010=



000
FTUS44 KBRO 231700 AAA
TAFBRO
TAF AMD
KBRO 231712Z 2317/2412 16015KT P6SM FEW029
     FM240100 14017KT P6SM SCT030
     FM240400 15015KT P6SM OVC019=



000
FTUS44 KBRO 231500 AAC
TAFMFE
TAF AMD
KMFE 231558Z 2316/2412 13015G20KT P6SM OVC016
     FM240100 13020G26KT P6SM SCT030
     FM240400 14016G22KT P6SM OVC019
     FM240900 15015KT P6SM OVC009=



000
FTUS44 KBRO 231500 AAC
TAFHRL
TAF AMD
KHRL 231558Z 2316/2412 15012KT P6SM SCT024
     FM240100 14014G21KT P6SM SCT030
     FM240400 16016KT P6SM OVC019=



000
FTUS44 KBRO 231400 AAB
TAFMFE
TAF AMD
KMFE 231428Z 2314/2412 15009KT P6SM OVC009
     FM231600 15012KT P6SM BKN019
     FM240100 13020G26KT P6SM SCT030
     FM240400 14016G22KT P6SM OVC019
     FM240900 15015KT P6SM OVC009=



000
FTUS44 KBRO 231300 AAA
TAFMFE
TAF AMD
KMFE 231349Z 2314/2412 13006KT P6SM OVC013
     FM231600 15012KT P6SM BKN030
     FM240100 13020G26KT P6SM SCT030
     FM240400 14016G22KT P6SM OVC019
     FM240900 15015KT P6SM OVC009=



000
FTUS44 KBRO 231300 AAB
TAFHRL
TAF AMD
KHRL 231348Z 2314/2412 13005KT P6SM SKC
     FM231600 15012KT P6SM BKN030
     FM240100 14014G21KT P6SM SCT030
     FM240400 16016KT P6SM OVC019=



000
FTUS44 KBRO 231200 AAA
TAFBRO
TAF AMD
KBRO 231226Z 2312/2412 15005KT P6SM SKC
     FM231500 15012KT P6SM SCT030
     FM231700 15018G25KT P6SM SCT050
     FM240100 14014G20KT P6SM SCT030=



000
FTUS44 KBRO 231200 AAA
TAFHRL
TAF AMD
KHRL 231226Z 2312/2412 10003KT 4SM BR SKC
     FM231500 15012KT P6SM BKN030
     FM231700 15018G25KT P6SM SCT050
     FM240100 14014G21KT P6SM SCT030=



000
FTUS44 KBRO 231100
TAFBRO
TAF
KBRO 231120Z 2312/2412 14004KT P6SM SKC
      TEMPO 2312/2315 BKN025
     FM231500 15012KT P6SM SCT030
     FM231700 15018G25KT P6SM SCT050
     FM240100 14014G20KT P6SM SCT030=



000
FTUS44 KBRO 231100
TAFMFE
TAF
KMFE 231120Z 2312/2412 13004KT P6SM BKN007
     FM231500 15012KT P6SM BKN030
     FM231700 14018G25KT P6SM SCT050
     FM240100 14014G21KT P6SM SCT030=



000
FTUS44 KBRO 231100
TAFHRL
TAF
KHRL 231120Z 2312/2412 09004KT 2SM BR OVC018
      TEMPO 2312/2315 3SM BR
     FM231500 15012KT P6SM BKN030
     FM231700 15018G25KT P6SM SCT050
     FM240100 14014G21KT P6SM SCT030=



000
FTUS44 KBRO 230700 AAA
TAFMFE
TAF AMD
KMFE 230742Z 2308/2406 15005KT P6SM BKN010
     FM231500 15012KT P6SM BKN030
     FM231700 14018G25KT P6SM BKN050=



000
FTUS44 KBRO 230700 AAA
TAFHRL
TAF AMD
KHRL 230741Z 2308/2406 15005KT P6SM BKN015
     FM231500 15012KT P6SM BKN030
     FM231700 15018G25KT P6SM BKN050=



000
FTUS44 KBRO 230500
TAFBRO
TAF
KBRO 230525Z 2306/2406 15003KT P6SM SKC
     FM231500 15012KT P6SM SCT030
     FM231700 15018G25KT P6SM SCT050=



000
FTUS44 KBRO 230500
TAFHRL
TAF
KHRL 230525Z 2306/2406 15005KT P6SM SKC
     FM231500 15012KT P6SM BKN030
     FM231700 15018G25KT P6SM BKN050=



000
FTUS44 KBRO 230500
TAFMFE
TAF
KMFE 230525Z 2306/2406 15005KT P6SM SKC
     FM231500 15012KT P6SM BKN030
     FM231700 14018G25KT P6SM BKN050=



000
FTUS44 KBRO 222300
TAFHRL
TAF
KHRL 222323Z 2300/2324 11012G18KT P6SM FEW045
     FM230100 12007KT P6SM SKC
     FM230600 14005KT P6SM BKN025
     FM231500 15012KT P6SM BKN030
     FM231700 15018G25KT P6SM BKN050=



000
FTUS44 KBRO 222300
TAFBRO
TAF
KBRO 222323Z 2300/2324 12008KT P6SM BKN045
     FM230100 12005KT P6SM SKC
     FM230600 15005KT P6SM BKN025
     FM231500 15012KT P6SM BKN030
     FM231700 15018G25KT P6SM BKN050=



000
FTUS44 KBRO 222300
TAFMFE
TAF
KMFE 222323Z 2300/2324 09013G18KT P6SM SCT045
     FM230200 14007KT P6SM SKC
     FM230600 15005KT P6SM BKN025
     FM231500 15012KT P6SM BKN030
     FM231700 14018G25KT P6SM BKN050=



000
FTUS44 KBRO 221700
TAFHRL
TAF
KHRL 221734Z 2218/2318 VRB03KT P6SM FEW021 SCT045
     FM222100 13007KT P6SM SCT025 BKN035
     FM230100 14005KT P6SM SCT035
     FM230600 15005KT P6SM BKN025
     FM231500 15012KT P6SM BKN030=



000
FTUS44 KBRO 221700
TAFMFE
TAF
KMFE 221734Z 2218/2318 12006KT P6SM FEW019
     FM222100 13007KT P6SM SCT025 BKN035
     FM230100 14005KT P6SM SCT035
     FM230600 15005KT P6SM BKN025
     FM231500 15012KT P6SM BKN030=



000
FTUS44 KBRO 221700
TAFBRO
TAF
KBRO 221734Z 2218/2318 00000KT P6SM BKN025 BKN035 OVC060
     FM222100 13007KT P6SM SCT025 BKN035
     FM230100 14005KT P6SM SCT035
     FM230600 15005KT P6SM BKN025
     FM231500 15012KT P6SM BKN030=



000
FTUS44 KBRO 221500 AAB
TAFMFE
TAF AMD
KMFE 221559Z 2216/2312 10004KT P6SM SCT015 SCT019 OVC040
     FM221700 11008KT P6SM SCT040
     FM230100 13006KT P6SM SCT030=



000
FTUS44 KBRO 221400 AAB
TAFHRL
TAF AMD
KHRL 221443Z 2215/2312 00000KT P6SM FEW024 OVC035
     FM221700 12010KT P6SM SCT040
     FM230100 13006KT P6SM SCT030=



000
FTUS44 KBRO 221400 AAB
TAFBRO
TAF AMD
KBRO 221400Z 2214/2312 15004KT P6SM BKN040
     FM221700 12010KT P6SM SCT040
     FM230100 13006KT P6SM SCT030=



000
FTUS44 KBRO 221400 AAA
TAFHRL
TAF AMD
KHRL 221400Z 2214/2312 05003KT P6SM OVC019
     FM221700 12010KT P6SM SCT040
     FM230100 13006KT P6SM SCT030=



000
FTUS44 KBRO 221200 AAA
TAFMFE
TAF AMD
KMFE 221250Z 2213/2312 12005KT P6SM BKN011
     FM221700 11008KT P6SM SCT040
     FM230100 13006KT P6SM SCT030=



000
FTUS44 KBRO 221200 AAA
TAFBRO
TAF AMD
KBRO 221247Z 2213/2312 00000KT P6SM SCT013 OVC030
      TEMPO 2213/2215 BKN015
     FM221500 15006KT P6SM BKN025
     FM221700 12010KT P6SM SCT040
     FM230100 13006KT P6SM SCT030=



000
FTUS44 KBRO 221100
TAFHRL
TAF
KHRL 221120Z 2212/2312 01004KT P6SM OVC015
     FM221400 15006KT P6SM BKN025
     FM221700 12010KT P6SM SCT040
     FM230100 13006KT P6SM SCT030=



000
FTUS44 KBRO 221100
TAFBRO
TAF
KBRO 221120Z 2212/2312 00000KT P6SM SKC
      TEMPO 2212/2215 BKN015
     FM221500 15006KT P6SM BKN025
     FM221700 12010KT P6SM SCT040
     FM230100 13006KT P6SM SCT030=



000
FTUS44 KBRO 221100
TAFMFE
TAF
KMFE 221120Z 2212/2312 11003KT P6SM BKN015
     FM221400 15006KT P6SM BKN025
     FM221700 11008KT P6SM SCT040
     FM230100 13006KT P6SM SCT030=



000
FTUS44 KBRO 220500 RRA
TAFHRL
TAF
KHRL 220544Z 2206/2306 13009KT P6SM OVC060
     FM220900 15005KT P6SM BKN015
      TEMPO 2210/2214 BKN010
     FM221400 15006KT P6SM BKN025
     FM221700 12010KT P6SM BKN040=



000
FTUS44 KBRO 220500 RRA
TAFMFE
TAF
KMFE 220544Z 2206/2306 13011KT P6SM OVC060
      TEMPO 2208/2210 6SM -RA
     FM221000 15005KT P6SM BKN015
     FM221400 15006KT P6SM BKN025
     FM221700 11008KT P6SM BKN040=



000
FTUS44 KBRO 220500 RRA
TAFBRO
TAF
KBRO 220544Z 2206/2306 13009KT P6SM SCT060
     FM221000 15005KT P6SM BKN015
      TEMPO 2210/2214 BKN010
     FM221400 15006KT P6SM BKN025
     FM221700 12010KT P6SM BKN040=



000
FTUS44 KBRO 212300
TAFBRO
TAF
KBRO 212320Z 2200/2224 15012KT P6SM SCT028 OVC035
     FM220600 13009KT P6SM BKN030
     FM221000 15005KT P6SM BKN015
      TEMPO 2210/2214 BKN010
     FM221400 15006KT P6SM BKN025
     FM221700 12010KT P6SM BKN040=



000
FTUS44 KBRO 212300
TAFMFE
TAF
KMFE 212320Z 2200/2224 12010KT P6SM SCT035 OVC040
     FM220600 13011KT P6SM BKN020
     FM220900 15005KT P6SM BKN015
     FM221400 15006KT P6SM BKN025
     FM221700 11008KT P6SM BKN040=



000
FTUS44 KBRO 212300
TAFHRL
TAF
KHRL 212320Z 2200/2224 17010KT P6SM OVC035
     FM220600 13009KT P6SM BKN020
     FM220900 15005KT P6SM BKN015
      TEMPO 2210/2214 BKN010
     FM221400 15006KT P6SM BKN025
     FM221700 12010KT P6SM BKN040=



000
FTUS44 KBRO 211900 AAB
TAFMFE
TAF AMD
KMFE 211910Z 2119/2218 14011KT P6SM SCT035 OVC040
      TEMPO 2119/2122 BKN030
     FM220600 13011KT P6SM BKN020
     FM220900 15005KT P6SM BKN015
     FM221400 15006KT P6SM BKN025
     FM221700 16006KT P6SM BKN040=



000
FTUS44 KBRO 211800 AAA
TAFMFE
TAF AMD
KMFE 211823Z 2118/2218 14011KT P6SM SCT035 OVC040
      TEMPO 2118/2122 BKN025
     FM220600 13011KT P6SM BKN020
     FM220900 15005KT P6SM BKN015
     FM221400 15006KT P6SM BKN025
     FM221700 16006KT P6SM BKN040=



000
FTUS44 KBRO 211800 AAA
TAFHRL
TAF AMD
KHRL 211819Z 2118/2218 20009KT P6SM OVC035
     FM220600 13009KT P6SM BKN020
     FM220900 15005KT P6SM BKN015
      TEMPO 2210/2214 BKN010
     FM221400 15006KT P6SM BKN025
     FM221700 16006KT P6SM BKN040=



000
FTUS44 KBRO 211700
TAFHRL
TAF
KHRL 211732Z 2118/2218 18012G15KT P6SM BKN030
     FM220600 13009KT P6SM BKN020
     FM220900 15005KT P6SM BKN015
      TEMPO 2210/2214 BKN010
     FM221400 15006KT P6SM BKN025
     FM221700 16006KT P6SM BKN040=



000
FTUS44 KBRO 211700
TAFMFE
TAF
KMFE 211732Z 2118/2218 13011KT P6SM SCT019 BKN030 OVC045
      TEMPO 2118/2122 BKN019
     FM220600 13011KT P6SM BKN020
     FM220900 15005KT P6SM BKN015
     FM221400 15006KT P6SM BKN025
     FM221700 16006KT P6SM BKN040=



000
FTUS44 KBRO 211700
TAFBRO
TAF
KBRO 211732Z 2118/2218 15012KT P6SM SCT028 OVC035
     FM220600 13009KT P6SM BKN030
     FM221000 15005KT P6SM BKN015
      TEMPO 2210/2214 BKN010
     FM221400 15006KT P6SM BKN025
     FM221700 16006KT P6SM BKN040=



000
FTUS44 KBRO 211600 AAA
TAFMFE
TAF AMD
KMFE 211609Z 2116/2212 14012KT P6SM SCT017 OVC035
     FM211700 15012G18KT P6SM BKN035
     FM220200 13011KT P6SM BKN030
     FM220900 15005KT P6SM BKN020=



000
FTUS44 KBRO 211600 AAA
TAFBRO
TAF AMD
KBRO 211609Z 2116/2212 14013KT P6SM SCT026 BKN035
     FM211800 15014G21KT P6SM BKN035
     FM220200 13009KT P6SM BKN030
     FM220900 15005KT P6SM BKN015=



000
FTUS44 KBRO 211500 AAC
TAFHRL
TAF AMD
KHRL 211500Z 2115/2212 13012KT P6SM SCT025 BKN250
      TEMPO 2115/2118 BKN027
     FM211800 15013G18KT P6SM BKN035
     FM220200 13009KT P6SM BKN030
     FM220900 15005KT P6SM BKN015=



000
FTUS44 KBRO 211400 AAB
TAFHRL
TAF AMD
KHRL 211447Z 2115/2212 11005KT P6SM SCT025 BKN250
      TEMPO 2115/2118 BKN027
     FM211800 15013G18KT P6SM BKN035
     FM220200 13009KT P6SM BKN030
     FM220900 15005KT P6SM BKN015=



000
FTUS44 KBRO 211300 AAB
TAFBRO
TAF AMD
KBRO 211325Z 2113/2212 11005KT P6SM SCT027 BKN250
      TEMPO 2113/2117 BKN029
     FM211800 15014G21KT P6SM BKN035
     FM220200 13009KT P6SM BKN030
     FM220900 15005KT P6SM BKN015=



000
FTUS44 KBRO 211200 AAA
TAFHRL
TAF AMD
KHRL 211258Z 2113/2212 11005KT P6SM SCT020 BKN250
     FM211800 15013G18KT P6SM BKN035
     FM220200 13009KT P6SM BKN030
     FM220900 15005KT P6SM BKN015=



000
FTUS44 KBRO 211200 AAA
TAFBRO
TAF AMD
KBRO 211258Z 2113/2212 11005KT P6SM SCT027 BKN250
     FM211800 15014G21KT P6SM BKN035
     FM220200 13009KT P6SM BKN030
     FM220900 15005KT P6SM BKN015=



000
FTUS44 KBRO 211100
TAFBRO
TAF
KBRO 211126Z 2112/2212 13003KT P6SM BKN023
     FM211500 14012KT P6SM BKN025
     FM211800 15014G21KT P6SM BKN035
     FM220200 13009KT P6SM BKN030
     FM220900 15005KT P6SM BKN015=



000
FTUS44 KBRO 211100
TAFMFE
TAF
KMFE 211126Z 2112/2212 12007KT P6SM OVC026
     FM211500 14010KT P6SM BKN030
     FM211700 15012G18KT P6SM BKN035
     FM220200 13011KT P6SM BKN030
     FM220900 15005KT P6SM BKN020=



000
FTUS44 KBRO 211100
TAFHRL
TAF
KHRL 211126Z 2112/2212 11005KT P6SM OVC021
     FM211500 14012KT P6SM BKN025
     FM211800 15013G18KT P6SM BKN035
     FM220200 13009KT P6SM BKN030
     FM220900 15005KT P6SM BKN015=



    US Dept of Commerce
    National Oceanic and Atmospheric Administration
    National Weather Service
    1325 East West Highway
    Silver Spring, MD 20910
    Page Author: NWS Internet Services Team
Disclaimer
Information Quality
Credits
Glossary
Privacy Policy
Freedom of Information Act (FOIA)
About Us
Career Opportunities